createdAt,value
2023-05-19T00:01:48.873Z,7.58
2023-05-19T00:04:15.614Z,7.40
2023-05-19T00:06:42.509Z,7.34
2023-05-19T00:09:10.023Z,7.28
2023-05-19T00:11:38.903Z,7.23
2023-05-19T00:14:07.400Z,7.19
2023-05-19T00:16:34.509Z,7.15
2023-05-19T00:19:02.962Z,7.18
2023-05-19T00:21:30.164Z,7.24
2023-05-19T00:23:56.756Z,7.14
2023-05-19T00:26:24.486Z,7.19
2023-05-19T00:28:51.050Z,7.04
2023-05-19T00:31:17.551Z,6.86
2023-05-19T00:33:44.120Z,7.12
2023-05-19T00:36:10.615Z,7.10
2023-05-19T00:38:37.434Z,6.81
2023-05-19T00:41:05.540Z,6.57
2023-05-19T00:43:32.702Z,6.50
2023-05-19T00:45:59.049Z,6.42
2023-05-19T00:48:26.259Z,6.37
2023-05-19T00:50:57.169Z,6.22
2023-05-19T00:53:24.563Z,6.27
2023-05-19T00:55:50.987Z,6.35
2023-05-19T00:58:18.424Z,6.32
2023-05-19T01:00:45.254Z,6.20
2023-05-19T01:03:11.962Z,6.09
2023-05-19T01:05:40.536Z,6.05
2023-05-19T01:08:07.745Z,6.09
2023-05-19T01:10:34.695Z,6.02
2023-05-19T01:13:03.180Z,5.91
2023-05-19T01:15:30.614Z,5.94
2023-05-19T01:18:14.015Z,5.80
2023-05-19T01:20:47.245Z,5.76
2023-05-19T01:23:32.390Z,5.77
2023-05-19T01:26:10.808Z,5.64
2023-05-19T01:28:58.931Z,5.42
2023-05-19T01:31:26.633Z,5.22
2023-05-19T01:33:54.134Z,5.11
2023-05-19T01:36:22.983Z,4.99
2023-05-19T01:38:54.550Z,5.02
2023-05-19T01:41:22.670Z,4.93
2023-05-19T01:43:50.190Z,4.76
2023-05-19T01:46:17.751Z,4.77
2023-05-19T01:48:45.141Z,4.82
2023-05-19T01:51:11.685Z,4.72
2023-05-19T01:53:38.140Z,4.64
2023-05-19T01:56:05.686Z,4.66
2023-05-19T01:58:47.462Z,4.65
2023-05-19T02:01:46.305Z,4.57
2023-05-19T02:04:15.581Z,4.59
2023-05-19T02:06:49.695Z,4.64
2023-05-19T02:09:25.385Z,4.59
2023-05-19T02:12:03.301Z,4.59
2023-05-19T02:14:41.675Z,4.53
2023-05-19T02:17:08.788Z,4.40
2023-05-19T02:19:38.421Z,4.41
2023-05-19T02:22:04.870Z,4.31
2023-05-19T02:24:31.257Z,4.18
2023-05-19T02:26:57.621Z,4.19
2023-05-19T02:29:23.986Z,4.13
2023-05-19T02:31:50.444Z,4.15
2023-05-19T02:34:16.871Z,4.01
2023-05-19T02:36:43.214Z,4.01
2023-05-19T02:39:10.614Z,3.98
2023-05-19T02:41:37.731Z,4.05
2023-05-19T02:44:04.511Z,4.25
2023-05-19T02:46:30.987Z,4.20
2023-05-19T02:48:57.332Z,4.17
2023-05-19T02:51:23.714Z,4.30
2023-05-19T02:53:50.374Z,4.35
2023-05-19T02:56:16.837Z,4.35
2023-05-19T02:58:43.328Z,4.51
2023-05-19T03:01:09.897Z,4.38
2023-05-19T03:03:36.642Z,4.30
2023-05-19T03:06:03.375Z,4.07
2023-05-19T03:08:29.760Z,4.10
2023-05-19T03:10:56.105Z,4.08
2023-05-19T03:13:22.462Z,4.02
2023-05-19T03:15:48.941Z,3.90
2023-05-19T03:18:15.436Z,4.14
2023-05-19T03:20:42.606Z,4.07
2023-05-19T03:23:09.439Z,3.93
2023-05-19T03:25:35.823Z,3.94
2023-05-19T03:28:02.168Z,4.03
2023-05-19T03:30:28.596Z,4.00
2023-05-19T03:32:55.052Z,3.94
2023-05-19T03:35:21.446Z,3.92
2023-05-19T03:37:47.810Z,3.94
2023-05-19T03:40:14.152Z,3.91
2023-05-19T03:42:40.530Z,3.94
2023-05-19T03:45:07.463Z,4.12
2023-05-19T03:47:33.841Z,4.08
2023-05-19T03:50:00.244Z,3.99
2023-05-19T03:52:26.581Z,3.89
2023-05-19T03:54:52.932Z,3.95
2023-05-19T03:57:19.735Z,3.94
2023-05-19T03:59:46.088Z,4.00
2023-05-19T04:02:12.494Z,4.06
2023-05-19T04:04:38.994Z,3.94
2023-05-19T04:07:05.489Z,3.87
2023-05-19T04:09:31.845Z,3.84
2023-05-19T04:11:58.212Z,3.94
2023-05-19T04:14:24.550Z,3.92
2023-05-19T04:16:50.926Z,3.98
2023-05-19T04:19:17.837Z,4.14
2023-05-19T04:21:44.313Z,4.36
2023-05-19T04:24:10.683Z,4.39
2023-05-19T04:26:37.194Z,4.51
2023-05-19T04:29:04.019Z,4.61
2023-05-19T04:31:30.953Z,4.66
2023-05-19T04:33:57.346Z,4.77
2023-05-19T04:36:23.681Z,5.14
2023-05-19T04:38:50.042Z,5.55
2023-05-19T04:41:16.536Z,5.75
2023-05-19T04:43:42.898Z,6.00
2023-05-19T04:46:10.939Z,6.18
2023-05-19T04:48:38.892Z,6.57
2023-05-19T04:51:05.838Z,6.77
2023-05-19T04:53:32.168Z,7.06
2023-05-19T04:55:59.397Z,7.13
2023-05-19T04:58:25.804Z,7.21
2023-05-19T05:00:52.436Z,7.30
2023-05-19T05:03:18.901Z,7.36
2023-05-19T05:05:45.334Z,7.44
2023-05-19T05:08:11.896Z,7.72
2023-05-19T05:10:38.246Z,8.12
2023-05-19T05:13:04.969Z,8.43
2023-05-19T05:15:31.597Z,8.59
2023-05-19T05:17:58.275Z,8.70
2023-05-19T05:20:25.164Z,8.83
2023-05-19T05:22:51.811Z,9.09
2023-05-19T05:25:18.720Z,9.24
2023-05-19T05:27:45.122Z,9.48
2023-05-19T05:30:11.789Z,9.76
2023-05-19T05:32:38.537Z,9.73
2023-05-19T05:35:05.616Z,9.72
2023-05-19T05:37:31.974Z,9.81
2023-05-19T05:39:58.323Z,10.04
2023-05-19T05:42:24.689Z,10.16
2023-05-19T05:44:51.058Z,10.43
2023-05-19T05:47:17.645Z,10.55
2023-05-19T05:49:44.334Z,10.81
2023-05-19T05:52:12.101Z,11.26
2023-05-19T05:54:38.745Z,11.62
2023-05-19T05:57:05.563Z,12.20
2023-05-19T05:59:31.917Z,12.60
2023-05-19T06:01:58.300Z,13.02
2023-05-19T06:04:24.765Z,13.67
2023-05-19T06:06:51.124Z,14.29
2023-05-19T06:09:17.501Z,13.89
2023-05-19T06:11:44.123Z,13.78
2023-05-19T06:14:10.512Z,13.46
2023-05-19T06:16:36.934Z,11.90
2023-05-19T06:19:03.354Z,12.23
2023-05-19T06:21:29.747Z,12.97
2023-05-19T06:23:56.090Z,12.29
2023-05-19T06:26:22.450Z,12.34
2023-05-19T06:28:48.797Z,12.32
2023-05-19T06:31:15.164Z,12.03
2023-05-19T06:33:41.568Z,13.04
2023-05-19T06:36:08.005Z,13.31
2023-05-19T06:38:34.350Z,13.25
2023-05-19T06:41:00.710Z,13.16
2023-05-19T06:43:27.087Z,13.26
2023-05-19T06:45:53.535Z,12.94
2023-05-19T06:48:19.868Z,12.72
2023-05-19T06:50:46.255Z,12.90
2023-05-19T06:53:12.646Z,13.04
2023-05-19T06:55:50.452Z,12.36
2023-05-19T06:58:24.214Z,12.09
2023-05-19T07:00:50.594Z,12.64
2023-05-19T07:03:17.049Z,12.79
2023-05-19T07:05:43.710Z,13.35
2023-05-19T07:08:10.079Z,13.16
2023-05-19T07:10:36.657Z,13.09
2023-05-19T07:13:03.049Z,13.30
2023-05-19T07:15:29.401Z,13.40
2023-05-19T07:17:55.838Z,12.51
2023-05-19T07:20:22.262Z,13.26
2023-05-19T07:22:48.608Z,13.07
2023-05-19T07:25:15.002Z,13.04
2023-05-19T07:27:41.360Z,13.48
2023-05-19T07:30:08.341Z,13.46
2023-05-19T07:32:34.775Z,13.56
2023-05-19T07:35:01.281Z,13.59
2023-05-19T07:37:27.688Z,13.47
2023-05-19T07:39:54.076Z,13.84
2023-05-19T07:42:20.439Z,14.33
2023-05-19T07:44:46.816Z,14.64
2023-05-19T07:47:13.165Z,13.76
2023-05-19T07:49:39.516Z,14.58
2023-05-19T07:52:06.189Z,14.23
2023-05-19T07:54:32.587Z,14.47
2023-05-19T07:56:58.952Z,14.17
2023-05-19T07:59:25.294Z,14.19
2023-05-19T08:01:51.682Z,14.77
2023-05-19T08:04:18.226Z,14.27
2023-05-19T08:06:44.768Z,14.59
2023-05-19T08:09:11.138Z,14.58
2023-05-19T08:11:37.511Z,14.45
2023-05-19T08:14:03.917Z,14.77
2023-05-19T08:16:30.524Z,14.60
2023-05-19T08:18:57.034Z,14.48
2023-05-19T08:21:23.432Z,14.47
2023-05-19T08:23:49.817Z,14.94
2023-05-19T08:26:16.166Z,15.17
2023-05-19T08:28:42.519Z,15.24
2023-05-19T08:31:08.927Z,15.42
2023-05-19T08:33:35.429Z,14.97
2023-05-19T08:36:01.804Z,15.07
2023-05-19T08:38:28.235Z,15.17
2023-05-19T08:40:54.712Z,15.25
2023-05-19T08:43:21.502Z,15.94
2023-05-19T08:45:47.876Z,16.04
2023-05-19T08:48:17.217Z,16.04
2023-05-19T08:50:51.704Z,16.23
2023-05-19T08:53:32.358Z,15.48
2023-05-19T08:56:16.571Z,15.56
2023-05-19T08:58:44.591Z,15.79
2023-05-19T09:01:14.507Z,15.82
2023-05-19T09:03:42.569Z,16.06
2023-05-19T09:06:10.528Z,16.48
2023-05-19T09:08:36.960Z,16.10
2023-05-19T09:11:03.352Z,16.00
2023-05-19T09:13:30.096Z,15.85
2023-05-19T09:15:57.670Z,16.01
2023-05-19T09:18:25.229Z,16.29
2023-05-19T09:20:55.879Z,16.63
2023-05-19T09:23:23.217Z,16.37
2023-05-19T09:25:53.156Z,16.56
2023-05-19T09:28:33.417Z,16.05
2023-05-19T09:31:01.048Z,16.05
2023-05-19T09:33:28.277Z,16.28
2023-05-19T09:35:55.742Z,15.93
2023-05-19T09:38:24.221Z,16.06
2023-05-19T09:40:50.709Z,16.32
2023-05-19T09:43:17.070Z,16.66
2023-05-19T09:45:44.191Z,17.11
2023-05-19T09:48:10.544Z,16.45
2023-05-19T09:50:37.150Z,16.75
2023-05-19T09:53:03.827Z,16.48
2023-05-19T09:55:30.566Z,16.27
2023-05-19T09:57:57.328Z,15.80
2023-05-19T10:00:23.681Z,16.28
2023-05-19T10:02:50.246Z,16.55
2023-05-19T10:05:19.074Z,17.23
2023-05-19T10:07:50.373Z,16.81
2023-05-19T10:10:17.597Z,17.36
2023-05-19T10:12:44.008Z,17.10
2023-05-19T10:15:11.892Z,16.75
2023-05-19T10:17:42.771Z,17.03
2023-05-19T10:20:11.086Z,17.63
2023-05-19T10:22:38.263Z,17.81
2023-05-19T10:25:05.608Z,17.43
2023-05-19T10:27:34.192Z,17.05
2023-05-19T10:30:18.663Z,16.71
2023-05-19T10:32:47.323Z,17.39
2023-05-19T10:35:28.706Z,17.95
2023-05-19T10:38:33.989Z,18.26
2023-05-19T10:41:28.439Z,16.89
2023-05-19T10:44:13.657Z,17.16
2023-05-19T10:46:40.517Z,17.86
2023-05-19T10:49:09.774Z,17.23
2023-05-19T10:51:36.591Z,17.43
2023-05-19T10:54:07.940Z,17.44
2023-05-19T10:56:34.437Z,17.57
2023-05-19T10:59:02.290Z,16.97
2023-05-19T11:01:35.980Z,16.50
2023-05-19T11:04:07.469Z,16.62
2023-05-19T11:06:34.799Z,16.78
2023-05-19T11:09:13.857Z,16.89
2023-05-19T11:11:54.231Z,17.78
2023-05-19T11:14:28.097Z,18.70
2023-05-19T11:16:59.717Z,19.40
2023-05-19T11:19:31.145Z,19.57
2023-05-19T11:22:07.924Z,18.79
2023-05-19T11:24:44.492Z,19.83
2023-05-19T11:27:28.658Z,19.61
2023-05-19T11:29:56.666Z,19.02
2023-05-19T11:32:28.124Z,19.14
2023-05-19T11:34:55.921Z,18.99
2023-05-19T11:37:22.650Z,18.47
2023-05-19T11:39:49.611Z,19.06
2023-05-19T11:42:16.029Z,18.55
2023-05-19T11:44:43.741Z,18.52
2023-05-19T11:47:10.686Z,18.66
2023-05-19T11:49:37.059Z,17.94
2023-05-19T11:52:04.480Z,18.05
2023-05-19T11:54:32.953Z,18.48
2023-05-19T11:57:05.936Z,19.00
2023-05-19T11:59:35.477Z,19.92
2023-05-19T12:02:14.697Z,19.61
2023-05-19T12:04:41.231Z,19.91
2023-05-19T12:07:07.723Z,19.09
2023-05-19T12:09:34.226Z,18.85
2023-05-19T12:12:01.173Z,18.15
2023-05-19T12:14:30.040Z,18.94
2023-05-19T12:16:56.447Z,18.63
2023-05-19T12:19:24.627Z,18.68
2023-05-19T12:21:52.261Z,18.62
2023-05-19T12:24:20.052Z,18.40
2023-05-19T12:26:46.404Z,18.94
2023-05-19T12:29:13.496Z,18.36
2023-05-19T12:31:39.890Z,18.92
2023-05-19T12:34:06.344Z,19.62
2023-05-19T12:36:32.772Z,18.86
2023-05-19T12:38:59.303Z,18.48
2023-05-19T12:41:25.710Z,18.13
2023-05-19T12:43:52.086Z,18.92
2023-05-19T12:46:19.118Z,19.25
2023-05-19T12:48:46.885Z,19.00
2023-05-19T12:51:20.036Z,18.86
2023-05-19T12:53:46.958Z,18.48
2023-05-19T12:56:14.934Z,18.83
2023-05-19T12:58:42.503Z,18.31
2023-05-19T13:01:16.794Z,18.42
2023-05-19T13:03:43.654Z,18.64
2023-05-19T13:06:10.716Z,17.89
2023-05-19T13:08:38.188Z,17.23
2023-05-19T13:11:04.629Z,17.70
2023-05-19T13:13:31.070Z,18.41
2023-05-19T13:15:57.426Z,18.62
2023-05-19T13:18:23.834Z,18.80
2023-05-19T13:20:50.395Z,18.80
2023-05-19T13:23:16.993Z,18.50
2023-05-19T13:25:43.425Z,19.35
2023-05-19T13:28:10.280Z,18.43
2023-05-19T13:30:38.380Z,18.23
2023-05-19T13:33:04.877Z,18.87
2023-05-19T13:35:31.566Z,19.21
2023-05-19T13:37:58.068Z,19.81
2023-05-19T13:40:24.506Z,19.63
2023-05-19T13:42:50.886Z,19.92
2023-05-19T13:45:17.265Z,19.14
2023-05-19T13:47:43.660Z,19.66
2023-05-19T13:50:10.165Z,19.61
2023-05-19T13:52:36.530Z,19.90
2023-05-19T13:55:02.980Z,20.18
2023-05-19T13:57:29.369Z,20.95
2023-05-19T14:00:02.632Z,20.76
2023-05-19T14:02:30.308Z,20.16
2023-05-19T14:04:57.090Z,18.87
2023-05-19T14:07:23.466Z,18.62
2023-05-19T14:09:49.814Z,18.28
2023-05-19T14:12:16.394Z,17.76
2023-05-19T14:14:42.795Z,17.67
2023-05-19T14:17:09.152Z,18.33
2023-05-19T14:19:35.531Z,18.70
2023-05-19T14:22:01.928Z,19.77
2023-05-19T14:24:28.260Z,20.59
2023-05-19T14:26:54.616Z,20.82
2023-05-19T14:29:20.978Z,20.42
2023-05-19T14:31:47.491Z,19.22
2023-05-19T14:34:14.030Z,19.62
2023-05-19T14:36:40.403Z,18.33
2023-05-19T14:39:06.766Z,18.58
2023-05-19T14:41:33.114Z,18.65
2023-05-19T14:43:59.486Z,18.82
2023-05-19T14:46:25.883Z,18.33
2023-05-19T14:48:52.258Z,18.27
2023-05-19T14:51:18.607Z,18.69
2023-05-19T14:53:44.993Z,19.32
2023-05-19T14:56:11.331Z,19.10
2023-05-19T14:58:37.688Z,19.79
2023-05-19T15:01:04.163Z,19.39
2023-05-19T15:03:30.561Z,18.63
2023-05-19T15:05:56.958Z,18.55
2023-05-19T15:08:23.434Z,18.17
2023-05-19T15:10:50.054Z,18.11
2023-05-19T15:13:16.439Z,17.79
2023-05-19T15:15:42.811Z,18.07
2023-05-19T15:18:09.235Z,18.52
2023-05-19T15:20:35.790Z,18.96
2023-05-19T15:23:02.247Z,19.30
2023-05-19T15:25:28.623Z,19.52
2023-05-19T15:27:54.974Z,19.36
2023-05-19T15:30:21.347Z,19.96
2023-05-19T15:32:47.746Z,19.61
2023-05-19T15:35:15.227Z,19.34
2023-05-19T15:37:41.602Z,19.94
2023-05-19T15:40:08.556Z,19.75
2023-05-19T15:42:34.909Z,18.96
2023-05-19T15:45:01.285Z,18.41
2023-05-19T15:47:27.690Z,18.20
2023-05-19T15:49:54.077Z,18.19
2023-05-19T15:52:20.451Z,18.10
2023-05-19T15:54:46.859Z,17.81
2023-05-19T15:57:13.198Z,17.91
2023-05-19T15:59:39.538Z,17.74
2023-05-19T16:02:06.027Z,17.60
2023-05-19T16:04:32.443Z,17.58
2023-05-19T16:06:58.791Z,17.63
2023-05-19T16:09:25.135Z,17.93
2023-05-19T16:11:51.525Z,18.40
2023-05-19T16:14:17.881Z,18.38
2023-05-19T16:16:44.287Z,18.56
2023-05-19T16:19:10.721Z,18.76
2023-05-19T16:21:37.127Z,19.06
2023-05-19T16:24:03.659Z,18.82
2023-05-19T16:26:30.013Z,19.05
2023-05-19T16:28:56.400Z,19.26
2023-05-19T16:31:22.777Z,19.12
2023-05-19T16:33:49.152Z,18.65
2023-05-19T16:36:15.524Z,18.88
2023-05-19T16:38:41.882Z,19.14
2023-05-19T16:41:11.578Z,18.49
2023-05-19T16:43:38.062Z,18.10
2023-05-19T16:46:04.508Z,18.25
2023-05-19T16:48:30.959Z,18.25
2023-05-19T16:50:57.308Z,18.33
2023-05-19T16:53:23.751Z,17.51
2023-05-19T16:55:50.265Z,17.51
2023-05-19T16:58:16.634Z,17.68
2023-05-19T17:00:42.976Z,17.63
2023-05-19T17:03:09.504Z,17.89
2023-05-19T17:05:35.962Z,18.10
2023-05-19T17:08:02.316Z,17.65
2023-05-19T17:10:28.674Z,18.00
2023-05-19T17:12:55.025Z,17.61
2023-05-19T17:15:21.390Z,18.08
2023-05-19T17:17:47.754Z,18.31
2023-05-19T17:20:14.112Z,17.80
2023-05-19T17:22:40.478Z,18.22
2023-05-19T17:25:07.221Z,18.26
2023-05-19T17:27:33.580Z,18.36
2023-05-19T17:29:59.926Z,18.42
2023-05-19T17:32:26.348Z,18.13
2023-05-19T17:34:52.819Z,17.65
2023-05-19T17:37:19.346Z,17.69
2023-05-19T17:39:45.719Z,17.82
2023-05-19T17:42:12.084Z,17.38
2023-05-19T17:44:38.458Z,17.30
2023-05-19T17:47:04.884Z,17.41
2023-05-19T17:49:31.229Z,17.52
2023-05-19T17:51:57.836Z,17.47
2023-05-19T17:54:24.457Z,17.13
2023-05-19T17:56:50.968Z,16.85
2023-05-19T17:59:17.557Z,17.14
2023-05-19T18:01:44.253Z,17.09
2023-05-19T18:04:11.782Z,17.11
2023-05-19T18:06:40.760Z,17.10
2023-05-19T18:09:07.692Z,17.15
2023-05-19T18:11:34.224Z,17.03
2023-05-19T18:14:00.614Z,17.23
2023-05-19T18:16:27.114Z,16.97
2023-05-19T18:18:53.553Z,17.16
2023-05-19T18:21:19.953Z,17.08
2023-05-19T18:23:46.837Z,16.91
2023-05-19T18:26:13.372Z,17.04
2023-05-19T18:28:40.550Z,16.84
2023-05-19T18:31:07.689Z,16.99
2023-05-19T18:33:34.672Z,17.01
2023-05-19T18:36:01.048Z,16.85
2023-05-19T18:38:27.459Z,16.72
2023-05-19T18:40:53.797Z,16.77
2023-05-19T18:43:20.226Z,16.93
2023-05-19T18:45:47.021Z,16.96
2023-05-19T18:48:13.442Z,16.86
2023-05-19T18:50:39.863Z,16.60
2023-05-19T18:53:06.233Z,16.37
2023-05-19T18:55:32.604Z,16.39
2023-05-19T18:57:59.100Z,16.33
2023-05-19T19:00:25.454Z,16.46
2023-05-19T19:02:51.838Z,16.29
2023-05-19T19:05:18.310Z,16.24
2023-05-19T19:07:44.779Z,16.07
2023-05-19T19:10:11.562Z,16.26
2023-05-19T19:12:38.066Z,15.97
2023-05-19T19:15:04.868Z,16.02
2023-05-19T19:17:31.280Z,15.69
2023-05-19T19:19:57.832Z,15.94
2023-05-19T19:22:24.275Z,15.81
2023-05-19T19:24:50.621Z,15.86
2023-05-19T19:27:17.038Z,15.82
2023-05-19T19:29:46.664Z,15.88
2023-05-19T19:32:13.030Z,15.62
2023-05-19T19:34:39.376Z,15.73
2023-05-19T19:37:05.741Z,15.82
2023-05-19T19:39:32.086Z,15.84
2023-05-19T19:41:58.563Z,15.57
2023-05-19T19:44:25.098Z,15.59
2023-05-19T19:46:51.564Z,15.60
2023-05-19T19:49:17.990Z,15.72
2023-05-19T19:51:44.405Z,15.61
2023-05-19T19:54:10.777Z,15.48
2023-05-19T19:56:37.132Z,15.62
2023-05-19T19:59:03.479Z,15.58
2023-05-19T20:01:29.845Z,15.58
2023-05-19T20:03:56.917Z,15.58
2023-05-19T20:06:23.470Z,15.53
2023-05-19T20:08:49.964Z,15.61
2023-05-19T20:11:16.442Z,15.42
2023-05-19T20:13:42.776Z,15.29
2023-05-19T20:16:09.195Z,15.39
2023-05-19T20:18:35.636Z,15.23
2023-05-19T20:21:01.999Z,15.26
2023-05-19T20:23:28.430Z,15.24
2023-05-19T20:26:10.949Z,15.36
2023-05-19T20:28:38.576Z,15.25
2023-05-19T20:31:05.810Z,15.18
2023-05-19T20:33:32.202Z,15.14
2023-05-19T20:35:58.617Z,15.22
2023-05-19T20:38:24.977Z,15.13
2023-05-19T20:40:51.418Z,15.09
2023-05-19T20:43:17.782Z,14.98
2023-05-19T20:45:44.793Z,14.96
2023-05-19T20:48:11.644Z,14.84
2023-05-19T20:50:39.303Z,14.46
2023-05-19T20:53:05.721Z,14.66
2023-05-19T20:55:32.237Z,14.69
2023-05-19T20:57:58.742Z,14.54
2023-05-19T21:00:25.131Z,14.57
2023-05-19T21:02:51.519Z,14.58
2023-05-19T21:05:17.988Z,14.43
2023-05-19T21:07:44.373Z,14.37
2023-05-19T21:10:11.267Z,14.28
2023-05-19T21:12:37.640Z,14.22
2023-05-19T21:15:04.284Z,14.21
2023-05-19T21:17:30.688Z,14.18
2023-05-19T21:19:57.153Z,14.10
2023-05-19T21:22:27.332Z,14.05
2023-05-19T21:24:54.628Z,14.01
2023-05-19T21:27:21.678Z,13.92
2023-05-19T21:29:51.586Z,14.02
2023-05-19T21:32:17.972Z,14.00
2023-05-19T21:34:44.336Z,14.04
2023-05-19T21:37:10.833Z,13.97
2023-05-19T21:39:37.211Z,13.94
2023-05-19T21:42:03.787Z,13.89
2023-05-19T21:44:30.141Z,13.94
2023-05-19T21:46:56.585Z,13.88
2023-05-19T21:49:23.046Z,13.81
2023-05-19T21:51:49.397Z,13.70
2023-05-19T21:54:15.745Z,13.69
2023-05-19T21:56:42.089Z,13.63
2023-05-19T21:59:08.470Z,13.68
2023-05-19T22:01:34.857Z,13.68
2023-05-19T22:04:01.363Z,13.65
2023-05-19T22:06:27.803Z,13.57
2023-05-19T22:08:54.147Z,13.52
2023-05-19T22:11:20.521Z,13.52
2023-05-19T22:13:46.920Z,13.45
2023-05-19T22:16:13.287Z,13.42
2023-05-19T22:18:39.719Z,13.34
2023-05-19T22:21:06.141Z,13.26
2023-05-19T22:23:32.508Z,13.19
2023-05-19T22:25:58.852Z,13.10
2023-05-19T22:28:25.205Z,12.86
2023-05-19T22:30:51.586Z,13.04
2023-05-19T22:33:17.944Z,13.07
2023-05-19T22:35:44.288Z,13.03
2023-05-19T22:38:10.856Z,12.87
2023-05-19T22:40:37.568Z,12.79
2023-05-19T22:43:04.206Z,12.83
2023-05-19T22:45:31.222Z,12.76
2023-05-19T22:47:57.732Z,12.73
2023-05-19T22:50:24.085Z,12.69
2023-05-19T22:52:50.422Z,12.59
2023-05-19T22:55:16.794Z,12.50
2023-05-19T22:57:43.147Z,12.47
2023-05-19T23:00:10.145Z,12.42
2023-05-19T23:02:36.549Z,12.44
2023-05-19T23:05:03.098Z,12.44
2023-05-19T23:07:29.435Z,12.55
2023-05-19T23:09:55.787Z,12.65
2023-05-19T23:12:22.137Z,12.64
2023-05-19T23:14:48.485Z,12.75
2023-05-19T23:17:14.898Z,12.64
2023-05-19T23:19:41.303Z,12.58
2023-05-19T23:22:07.681Z,12.68
2023-05-19T23:24:34.024Z,12.70
2023-05-19T23:27:00.385Z,12.70
2023-05-19T23:29:26.951Z,12.70
2023-05-19T23:31:53.357Z,12.57
2023-05-19T23:34:19.842Z,12.62
2023-05-19T23:36:46.198Z,12.55
2023-05-19T23:39:12.588Z,12.50
2023-05-19T23:41:38.972Z,12.38
2023-05-19T23:44:05.401Z,12.46
2023-05-19T23:46:31.948Z,12.46
2023-05-19T23:48:58.400Z,12.34
2023-05-19T23:51:24.765Z,12.48
2023-05-19T23:53:51.097Z,12.50
2023-05-19T23:56:17.444Z,12.43
2023-05-19T23:58:43.797Z,12.47
